createdAt,value
2023-04-09T00:00:28.436Z,99.90
2023-04-09T00:02:01.594Z,99.90
2023-04-09T00:03:35.352Z,99.90
2023-04-09T00:05:09.199Z,99.90
2023-04-09T00:06:43.509Z,99.90
2023-04-09T00:08:16.511Z,99.90
2023-04-09T00:09:48.431Z,99.90
2023-04-09T00:11:21.877Z,99.90
2023-04-09T00:12:54.809Z,99.90
2023-04-09T00:14:27.820Z,99.90
2023-04-09T00:16:02.076Z,99.90
2023-04-09T00:17:34.196Z,99.90
2023-04-09T00:19:07.656Z,99.90
2023-04-09T00:20:40.805Z,99.90
2023-04-09T00:22:14.952Z,99.90
2023-04-09T00:23:47.919Z,99.90
2023-04-09T00:25:21.065Z,99.90
2023-04-09T00:26:53.547Z,99.90
2023-04-09T00:28:26.612Z,99.90
2023-04-09T00:29:59.575Z,99.90
2023-04-09T00:31:33.013Z,99.90
2023-04-09T00:33:06.039Z,99.90
2023-04-09T00:34:39.250Z,99.90
2023-04-09T00:36:12.334Z,99.90
2023-04-09T00:37:46.847Z,99.90
2023-04-09T00:39:19.772Z,99.90
2023-04-09T00:40:51.939Z,99.90
2023-04-09T00:42:24.827Z,99.90
2023-04-09T00:43:58.075Z,99.90
2023-04-09T00:45:31.052Z,99.90
2023-04-09T00:47:03.715Z,99.90
2023-04-09T00:48:36.852Z,99.90
2023-04-09T00:50:10.985Z,99.90
2023-04-09T00:51:44.084Z,99.90
2023-04-09T00:53:19.011Z,99.90
2023-04-09T00:54:52.906Z,99.90
2023-04-09T00:56:26.482Z,99.90
2023-04-09T00:57:59.391Z,99.90
2023-04-09T00:59:33.524Z,99.90
2023-04-09T01:01:06.547Z,99.90
2023-04-09T01:02:40.150Z,99.90
2023-04-09T01:04:12.316Z,99.90
2023-04-09T01:05:55.428Z,99.90
2023-04-09T01:07:40.690Z,99.90
2023-04-09T01:09:22.948Z,99.90
2023-04-09T01:11:00.449Z,99.90
2023-04-09T01:12:37.732Z,99.90
2023-04-09T01:14:25.420Z,99.90
2023-04-09T01:16:01.448Z,99.90
2023-04-09T01:17:39.187Z,99.90
2023-04-09T01:19:26.250Z,99.90
2023-04-09T01:21:03.981Z,99.90
2023-04-09T01:22:49.967Z,99.90
2023-04-09T01:24:41.126Z,99.90
2023-04-09T01:26:28.701Z,99.90
2023-04-09T01:28:16.551Z,99.90
2023-04-09T01:29:54.464Z,99.90
2023-04-09T01:31:32.036Z,99.90
2023-04-09T01:33:06.575Z,99.90
2023-04-09T01:34:39.924Z,99.90
2023-04-09T01:36:13.439Z,99.90
2023-04-09T01:37:46.516Z,99.90
2023-04-09T01:39:20.000Z,99.90
2023-04-09T01:40:53.833Z,99.90
2023-04-09T01:42:27.371Z,99.90
2023-04-09T01:44:04.028Z,99.90
2023-04-09T01:45:37.334Z,99.90
2023-04-09T01:47:11.136Z,99.90
2023-04-09T01:48:44.567Z,99.90
2023-04-09T01:50:17.523Z,99.90
2023-04-09T01:51:51.168Z,99.90
2023-04-09T01:53:24.368Z,99.90
2023-04-09T01:54:57.784Z,99.90
2023-04-09T01:56:40.644Z,99.90
2023-04-09T01:58:14.888Z,99.90
2023-04-09T01:59:49.275Z,99.90
2023-04-09T02:01:27.134Z,99.90
2023-04-09T02:03:05.506Z,99.90
2023-04-09T02:04:41.612Z,99.90
2023-04-09T02:06:17.260Z,99.90
2023-04-09T02:07:56.574Z,99.90
2023-04-09T02:09:32.131Z,99.90
2023-04-09T02:11:10.946Z,99.90
2023-04-09T02:12:49.341Z,99.90
2023-04-09T02:14:23.734Z,99.90
2023-04-09T02:15:58.919Z,99.90
2023-04-09T02:17:31.049Z,99.90
2023-04-09T02:19:04.078Z,99.90
2023-04-09T02:20:37.093Z,99.90
2023-04-09T02:22:10.706Z,99.90
2023-04-09T02:23:43.654Z,99.90
2023-04-09T02:25:16.884Z,99.90
2023-04-09T02:26:49.830Z,99.90
2023-04-09T02:28:22.842Z,99.90
2023-04-09T02:29:55.842Z,99.90
2023-04-09T02:31:30.415Z,99.90
2023-04-09T02:33:03.619Z,99.90
2023-04-09T02:34:36.624Z,99.90
2023-04-09T02:36:12.624Z,99.90
2023-04-09T02:37:45.972Z,99.90
2023-04-09T02:39:17.928Z,99.90
2023-04-09T02:40:51.007Z,99.90
2023-04-09T02:42:23.931Z,99.90
2023-04-09T02:43:57.096Z,99.90
2023-04-09T02:45:30.079Z,99.90
2023-04-09T02:47:04.437Z,99.90
2023-04-09T02:48:37.429Z,99.90
2023-04-09T02:50:10.664Z,99.90
2023-04-09T02:51:43.593Z,99.90
2023-04-09T02:53:16.556Z,99.90
2023-04-09T02:54:49.521Z,99.90
2023-04-09T02:56:22.513Z,99.90
2023-04-09T02:57:55.652Z,99.90
2023-04-09T02:59:28.548Z,99.90
2023-04-09T03:01:01.567Z,99.90
2023-04-09T03:02:36.139Z,99.90
2023-04-09T03:04:09.310Z,99.90
2023-04-09T03:05:42.312Z,99.90
2023-04-09T03:07:15.278Z,99.90
2023-04-09T03:08:48.239Z,99.90
2023-04-09T03:10:21.262Z,99.90
2023-04-09T03:11:54.440Z,99.90
2023-04-09T03:13:28.992Z,99.90
2023-04-09T03:15:02.047Z,99.90
2023-04-09T03:16:35.026Z,99.90
2023-04-09T03:18:09.500Z,99.90
2023-04-09T03:19:42.506Z,99.90
2023-04-09T03:21:16.219Z,99.90
2023-04-09T03:22:49.190Z,99.90
2023-04-09T03:24:22.157Z,99.90
2023-04-09T03:26:02.392Z,99.90
2023-04-09T03:27:35.380Z,99.90
2023-04-09T03:29:08.772Z,99.90
2023-04-09T03:30:40.571Z,99.90
2023-04-09T03:32:13.450Z,99.90
2023-04-09T03:33:47.708Z,99.90
2023-04-09T03:35:20.730Z,99.90
2023-04-09T03:36:53.819Z,99.90
2023-04-09T03:38:26.933Z,99.90
2023-04-09T03:40:00.003Z,99.90
2023-04-09T03:41:33.007Z,99.90
2023-04-09T03:43:05.937Z,99.90
2023-04-09T03:44:38.971Z,99.90
2023-04-09T03:46:15.202Z,99.90
2023-04-09T03:47:48.213Z,99.90
2023-04-09T03:49:22.680Z,99.90
2023-04-09T03:50:55.790Z,99.90
2023-04-09T03:52:28.964Z,99.90
2023-04-09T03:54:00.955Z,99.90
2023-04-09T03:55:33.916Z,99.90
2023-04-09T03:57:06.935Z,99.90
2023-04-09T03:58:40.103Z,99.90
2023-04-09T04:00:12.596Z,99.90
2023-04-09T04:01:45.635Z,99.90
2023-04-09T04:03:18.885Z,99.90
2023-04-09T04:04:53.240Z,99.90
2023-04-09T04:06:27.271Z,99.90
2023-04-09T04:07:59.229Z,99.90
2023-04-09T04:09:32.206Z,99.90
2023-04-09T04:11:05.946Z,99.90
2023-04-09T04:12:38.848Z,99.90
2023-04-09T04:14:11.896Z,99.90
2023-04-09T04:15:44.815Z,99.90
2023-04-09T04:17:16.883Z,99.90
2023-04-09T04:18:50.177Z,99.90
2023-04-09T04:20:23.728Z,99.90
2023-04-09T04:21:56.678Z,99.90
2023-04-09T04:23:29.754Z,99.90
2023-04-09T04:25:02.983Z,99.90
2023-04-09T04:26:35.860Z,99.90
2023-04-09T04:28:08.033Z,99.90
2023-04-09T04:29:40.943Z,99.90
2023-04-09T04:31:14.243Z,99.90
2023-04-09T04:32:47.099Z,99.90
2023-04-09T04:34:20.098Z,99.90
2023-04-09T04:35:54.451Z,99.90
2023-04-09T04:37:27.643Z,99.90
2023-04-09T04:39:00.599Z,99.90
2023-04-09T04:40:33.636Z,99.90
2023-04-09T04:42:06.628Z,99.90
2023-04-09T04:43:41.439Z,99.90
2023-04-09T04:45:14.408Z,99.90
2023-04-09T04:46:47.340Z,99.90
2023-04-09T04:48:20.286Z,99.90
2023-04-09T04:49:53.637Z,99.90
2023-04-09T04:51:28.022Z,99.90
2023-04-09T04:53:00.946Z,99.90
2023-04-09T04:54:34.815Z,99.90
2023-04-09T04:56:08.107Z,99.90
2023-04-09T04:57:41.036Z,99.90
2023-04-09T04:59:13.951Z,99.90
2023-04-09T05:00:47.240Z,99.90
2023-04-09T05:02:20.163Z,99.90
2023-04-09T05:03:53.614Z,99.90
2023-04-09T05:05:26.470Z,99.90
2023-04-09T05:07:01.193Z,99.90
2023-04-09T05:08:34.103Z,99.90
2023-04-09T05:10:08.604Z,99.90
2023-04-09T05:11:41.540Z,99.90
2023-04-09T05:13:14.519Z,99.90
2023-04-09T05:14:48.481Z,99.90
2023-04-09T05:16:22.081Z,99.90
2023-04-09T05:17:55.274Z,99.90
2023-04-09T05:19:28.290Z,99.90
2023-04-09T05:21:01.211Z,99.90
2023-04-09T05:22:36.217Z,99.90
2023-04-09T05:24:09.262Z,99.90
2023-04-09T05:25:42.240Z,99.90
2023-04-09T05:27:15.447Z,99.90
2023-04-09T05:28:48.445Z,99.90
2023-04-09T05:30:21.592Z,99.90
2023-04-09T05:31:54.560Z,99.90
2023-04-09T05:33:27.504Z,99.90
2023-04-09T05:35:00.504Z,99.90
2023-04-09T05:36:33.456Z,99.90
2023-04-09T05:38:07.774Z,99.90
2023-04-09T05:39:40.816Z,99.90
2023-04-09T05:41:14.045Z,99.90
2023-04-09T05:42:46.966Z,99.90
2023-04-09T05:44:18.964Z,99.90
2023-04-09T05:45:51.917Z,99.90
2023-04-09T05:47:25.007Z,99.90
2023-04-09T05:48:57.955Z,99.90
2023-04-09T05:50:31.844Z,99.90
2023-04-09T05:52:07.489Z,99.90
2023-04-09T05:53:42.774Z,99.90
2023-04-09T05:55:15.899Z,99.90
2023-04-09T05:56:49.172Z,99.90
2023-04-09T05:58:22.103Z,99.90
2023-04-09T05:59:54.996Z,99.90
2023-04-09T06:01:28.036Z,99.90
2023-04-09T06:03:01.139Z,99.90
2023-04-09T06:04:34.154Z,99.90
2023-04-09T06:06:07.340Z,99.90
2023-04-09T06:07:40.725Z,99.90
2023-04-09T06:09:14.895Z,99.90
2023-04-09T06:10:47.858Z,99.90
2023-04-09T06:12:20.846Z,99.90
2023-04-09T06:13:53.888Z,99.90
2023-04-09T06:15:26.973Z,99.90
2023-04-09T06:17:00.272Z,99.90
2023-04-09T06:18:33.211Z,99.90
2023-04-09T06:20:07.181Z,99.90
2023-04-09T06:21:40.711Z,99.90
2023-04-09T06:23:13.659Z,99.90
2023-04-09T06:24:47.987Z,99.90
2023-04-09T06:26:21.131Z,99.90
2023-04-09T06:27:54.092Z,99.90
2023-04-09T06:29:27.222Z,99.90
2023-04-09T06:31:00.941Z,99.90
2023-04-09T06:32:40.608Z,99.90
2023-04-09T06:34:24.246Z,99.90
2023-04-09T06:35:57.224Z,99.90
2023-04-09T06:37:30.283Z,99.90
2023-04-09T06:39:03.540Z,99.90
2023-04-09T06:40:39.591Z,99.90
2023-04-09T06:42:12.518Z,99.90
2023-04-09T06:43:45.625Z,99.90
2023-04-09T06:45:18.657Z,99.90
2023-04-09T06:46:51.828Z,99.90
2023-04-09T06:48:24.790Z,99.90
2023-04-09T06:49:57.794Z,99.90
2023-04-09T06:51:30.718Z,99.90
2023-04-09T06:53:03.723Z,99.90
2023-04-09T06:54:36.869Z,99.90
2023-04-09T06:56:11.233Z,99.90
2023-04-09T06:57:44.156Z,99.90
2023-04-09T06:59:17.359Z,99.90
2023-04-09T07:00:50.326Z,99.90
2023-04-09T07:02:23.483Z,99.90
2023-04-09T07:03:56.870Z,99.90
2023-04-09T07:05:30.654Z,99.90
2023-04-09T07:07:03.659Z,99.90
2023-04-09T07:08:36.581Z,99.90
2023-04-09T07:10:10.270Z,99.90
2023-04-09T07:11:44.660Z,99.90
2023-04-09T07:13:17.891Z,99.90
2023-04-09T07:14:50.810Z,99.90
2023-04-09T07:16:23.830Z,99.90
2023-04-09T07:17:57.735Z,99.90
2023-04-09T07:19:30.966Z,99.90
2023-04-09T07:21:04.421Z,99.90
2023-04-09T07:22:37.455Z,99.90
2023-04-09T07:24:10.456Z,99.90
2023-04-09T07:25:43.546Z,99.90
2023-04-09T07:27:17.854Z,99.90
2023-04-09T07:28:50.802Z,99.90
2023-04-09T07:30:23.965Z,99.90
2023-04-09T07:31:56.958Z,99.90
2023-04-09T07:33:30.473Z,99.90
2023-04-09T07:35:05.075Z,99.90
2023-04-09T07:36:38.685Z,99.90
2023-04-09T07:38:11.623Z,99.90
2023-04-09T07:39:44.802Z,99.90
2023-04-09T07:41:17.882Z,99.90
2023-04-09T07:42:53.276Z,99.90
2023-04-09T07:44:26.242Z,99.90
2023-04-09T07:45:59.210Z,99.90
2023-04-09T07:47:32.550Z,99.90
2023-04-09T07:49:05.764Z,99.90
2023-04-09T07:50:38.934Z,99.90
2023-04-09T07:52:12.067Z,99.90
2023-04-09T07:53:45.178Z,99.90
2023-04-09T07:55:18.938Z,99.90
2023-04-09T07:56:52.081Z,99.90
2023-04-09T07:58:26.341Z,99.90
2023-04-09T07:59:59.241Z,99.90
2023-04-09T08:01:32.199Z,99.90
2023-04-09T08:03:05.781Z,99.90
2023-04-09T08:04:39.106Z,99.90
2023-04-09T08:06:12.148Z,99.90
2023-04-09T08:07:45.156Z,99.90
2023-04-09T08:09:18.530Z,99.90
2023-04-09T08:10:51.560Z,99.90
2023-04-09T08:12:24.419Z,99.90
2023-04-09T08:14:01.423Z,99.90
2023-04-09T08:15:34.352Z,99.90
2023-04-09T08:17:07.286Z,99.90
2023-04-09T08:18:40.221Z,99.90
2023-04-09T08:20:13.828Z,99.90
2023-04-09T08:21:48.808Z,99.90
2023-04-09T08:23:21.810Z,99.90
2023-04-09T08:24:54.861Z,99.90
2023-04-09T08:26:27.887Z,99.90
2023-04-09T08:28:00.906Z,99.90
2023-04-09T08:29:35.362Z,99.90
2023-04-09T08:31:09.885Z,99.90
2023-04-09T08:32:44.446Z,99.90
2023-04-09T08:34:20.980Z,99.90
2023-04-09T08:35:53.948Z,99.90
2023-04-09T08:37:26.926Z,99.90
2023-04-09T08:39:00.570Z,99.90
2023-04-09T08:40:35.824Z,99.90
2023-04-09T08:42:12.543Z,99.90
2023-04-09T08:45:27.294Z,99.90
2023-04-09T08:47:01.314Z,99.90
2023-04-09T08:48:34.373Z,99.90
2023-04-09T08:50:08.106Z,99.90
2023-04-09T08:51:41.334Z,99.90
2023-04-09T08:53:16.598Z,99.90
2023-04-09T08:54:50.586Z,99.90
2023-04-09T08:56:23.888Z,99.90
2023-04-09T08:57:56.669Z,99.90
2023-04-09T08:59:29.645Z,99.90
2023-04-09T09:01:03.987Z,99.90
2023-04-09T09:02:37.144Z,99.90
2023-04-09T09:04:11.503Z,99.90
2023-04-09T09:05:45.935Z,99.90
2023-04-09T09:07:18.919Z,99.90
2023-04-09T09:09:10.240Z,99.70
2023-04-09T09:10:44.995Z,99.30
2023-04-09T09:12:38.202Z,99.00
2023-04-09T09:14:13.449Z,98.70
2023-04-09T09:15:47.799Z,98.30
2023-04-09T09:17:22.113Z,98.00
2023-04-09T09:18:56.869Z,97.80
2023-04-09T09:20:30.070Z,97.70
2023-04-09T09:22:05.229Z,97.40
2023-04-09T09:23:38.411Z,97.40
2023-04-09T09:25:14.383Z,97.50
2023-04-09T09:26:47.341Z,97.40
2023-04-09T09:28:20.821Z,97.50
2023-04-09T09:29:53.726Z,97.40
2023-04-09T09:31:27.405Z,97.30
2023-04-09T09:33:08.458Z,97.10
2023-04-09T09:34:41.515Z,96.60
2023-04-09T09:36:14.754Z,96.00
2023-04-09T09:37:47.567Z,95.80
2023-04-09T09:39:21.877Z,95.40
2023-04-09T09:40:54.813Z,95.20
2023-04-09T09:42:27.910Z,94.10
2023-04-09T09:44:00.834Z,93.70
2023-04-09T09:45:34.159Z,93.90
2023-04-09T09:47:07.282Z,94.00
2023-04-09T09:48:43.059Z,93.70
2023-04-09T09:50:16.059Z,93.50
2023-04-09T09:51:49.182Z,93.20
2023-04-09T09:53:27.256Z,92.70
2023-04-09T09:55:05.294Z,92.20
2023-04-09T09:56:42.082Z,92.40
2023-04-09T09:58:18.853Z,92.00
2023-04-09T09:59:55.490Z,91.90
2023-04-09T10:01:29.230Z,91.90
2023-04-09T10:03:11.624Z,91.50
2023-04-09T10:04:46.743Z,91.10
2023-04-09T10:06:20.316Z,91.10
2023-04-09T10:07:54.384Z,91.30
2023-04-09T10:09:28.850Z,91.20
2023-04-09T10:11:02.651Z,91.30
2023-04-09T10:12:36.446Z,90.90
2023-04-09T10:14:10.634Z,91.20
2023-04-09T10:15:45.168Z,91.20
2023-04-09T10:17:18.753Z,91.20
2023-04-09T10:18:52.429Z,91.30
2023-04-09T10:20:33.566Z,91.60
2023-04-09T10:22:11.496Z,91.60
2023-04-09T10:23:51.063Z,91.10
2023-04-09T10:25:34.302Z,90.80
2023-04-09T10:27:16.156Z,90.10
2023-04-09T10:29:05.900Z,90.20
2023-04-09T10:30:38.875Z,90.60
2023-04-09T10:32:12.720Z,90.70
2023-04-09T10:33:46.030Z,90.60
2023-04-09T10:35:25.997Z,90.40
2023-04-09T10:37:00.714Z,88.70
2023-04-09T10:38:38.811Z,88.20
2023-04-09T10:40:20.541Z,88.00
2023-04-09T10:41:55.590Z,85.10
2023-04-09T10:43:31.586Z,85.30
2023-04-09T10:45:09.393Z,84.90
2023-04-09T10:46:43.042Z,84.90
2023-04-09T10:48:16.207Z,85.30
2023-04-09T10:49:50.769Z,85.00
2023-04-09T10:51:24.079Z,85.30
2023-04-09T10:53:00.379Z,84.80
2023-04-09T10:54:47.145Z,84.70
2023-04-09T10:56:20.442Z,84.90
2023-04-09T10:57:53.209Z,84.00
2023-04-09T10:59:25.366Z,83.40
2023-04-09T11:01:02.765Z,82.80
2023-04-09T11:03:07.931Z,81.00
2023-04-09T11:04:50.345Z,79.70
2023-04-09T11:06:24.508Z,79.00
2023-04-09T11:08:04.293Z,79.60
2023-04-09T11:09:37.263Z,80.40
2023-04-09T11:11:13.266Z,79.60
2023-04-09T11:12:48.074Z,80.50
2023-04-09T11:14:21.650Z,80.40
2023-04-09T11:15:56.404Z,79.60
2023-04-09T11:17:29.635Z,79.80
2023-04-09T11:19:02.884Z,79.10
2023-04-09T11:20:36.398Z,78.70
2023-04-09T11:22:09.366Z,78.40
2023-04-09T11:23:43.943Z,79.00
2023-04-09T11:25:21.345Z,78.70
2023-04-09T11:26:56.906Z,78.50
2023-04-09T11:28:29.834Z,77.90
2023-04-09T11:30:01.850Z,77.50
2023-04-09T11:31:34.958Z,77.50
2023-04-09T11:33:08.668Z,77.80
2023-04-09T11:34:40.888Z,77.30
2023-04-09T11:36:13.896Z,76.00
2023-04-09T11:37:47.558Z,76.20
2023-04-09T11:39:21.991Z,76.10
2023-04-09T11:40:59.041Z,76.20
2023-04-09T11:42:31.969Z,75.90
2023-04-09T11:44:05.168Z,76.00
2023-04-09T11:45:38.577Z,75.80
2023-04-09T11:47:11.895Z,76.10
2023-04-09T11:48:44.666Z,75.80
2023-04-09T11:50:17.754Z,76.40
2023-04-09T11:51:50.982Z,76.30
2023-04-09T11:53:24.537Z,76.10
2023-04-09T11:55:02.554Z,75.30
2023-04-09T11:56:37.527Z,75.20
2023-04-09T11:58:13.407Z,75.20
2023-04-09T11:59:46.412Z,75.90
2023-04-09T12:01:19.410Z,76.00
2023-04-09T12:03:00.427Z,77.40
2023-04-09T12:04:33.607Z,77.00
2023-04-09T12:06:07.856Z,76.80
2023-04-09T12:07:44.213Z,77.00
2023-04-09T12:09:24.891Z,76.90
2023-04-09T12:11:08.478Z,76.50
2023-04-09T12:12:42.629Z,76.20
2023-04-09T12:14:17.226Z,75.80
2023-04-09T12:15:51.443Z,76.20
2023-04-09T12:17:24.507Z,76.20
2023-04-09T12:18:57.456Z,76.30
2023-04-09T12:20:32.073Z,76.70
2023-04-09T12:22:04.969Z,76.30
2023-04-09T12:23:37.955Z,76.00
2023-04-09T12:25:11.424Z,74.60
2023-04-09T12:26:46.261Z,74.30
2023-04-09T12:28:19.243Z,73.80
2023-04-09T12:29:52.207Z,72.50
2023-04-09T12:31:25.186Z,72.00
2023-04-09T12:32:58.217Z,71.90
2023-04-09T12:34:31.580Z,71.60
2023-04-09T12:36:04.781Z,71.80
2023-04-09T12:37:37.570Z,72.00
2023-04-09T12:39:10.968Z,72.00
2023-04-09T12:40:43.950Z,72.00
2023-04-09T12:42:18.253Z,71.70
2023-04-09T12:43:51.775Z,71.80
2023-04-09T12:45:24.922Z,71.40
2023-04-09T12:46:57.896Z,71.50
2023-04-09T12:48:30.780Z,71.50
2023-04-09T12:50:03.772Z,71.50
2023-04-09T12:51:36.688Z,71.50
2023-04-09T12:53:09.608Z,71.60
2023-04-09T12:54:42.552Z,71.20
2023-04-09T12:56:15.485Z,71.10
2023-04-09T12:57:51.841Z,71.20
2023-04-09T12:59:24.959Z,71.40
2023-04-09T13:00:57.971Z,70.80
2023-04-09T13:02:31.816Z,71.00
2023-04-09T13:04:04.867Z,71.50
2023-04-09T13:05:37.856Z,71.90
2023-04-09T13:07:11.999Z,71.90
2023-04-09T13:08:44.925Z,71.80
2023-04-09T13:10:18.063Z,72.60
2023-04-09T13:11:49.944Z,72.50
2023-04-09T13:13:25.025Z,72.80
2023-04-09T13:14:59.145Z,72.90
2023-04-09T13:16:32.837Z,72.90
2023-04-09T13:18:05.855Z,72.70
2023-04-09T13:19:39.886Z,73.80
2023-04-09T13:21:18.626Z,73.70
2023-04-09T13:22:52.345Z,74.40
2023-04-09T13:24:25.873Z,75.00
2023-04-09T13:25:59.674Z,75.40
2023-04-09T13:27:32.753Z,75.60
2023-04-09T13:29:08.162Z,76.20
2023-04-09T13:30:41.417Z,76.70
2023-04-09T13:32:14.307Z,76.70
2023-04-09T13:33:47.307Z,77.40
2023-04-09T13:35:20.362Z,77.00
2023-04-09T13:36:53.416Z,76.60
2023-04-09T13:38:26.650Z,77.10
2023-04-09T13:39:59.558Z,77.10
2023-04-09T13:41:33.915Z,77.00
2023-04-09T13:43:06.951Z,77.00
2023-04-09T13:44:42.532Z,77.30
2023-04-09T13:46:15.643Z,76.60
2023-04-09T13:47:49.393Z,76.50
2023-04-09T13:49:22.445Z,76.30
2023-04-09T13:50:55.450Z,76.30
2023-04-09T13:52:29.791Z,76.50
2023-04-09T13:54:05.774Z,76.00
2023-04-09T13:55:40.761Z,75.80
2023-04-09T13:57:13.742Z,75.20
2023-04-09T13:58:46.882Z,75.30
2023-04-09T14:00:21.379Z,75.10
2023-04-09T14:01:54.571Z,75.40
2023-04-09T14:03:27.486Z,75.00
2023-04-09T14:05:00.768Z,74.50
2023-04-09T14:06:33.563Z,74.00
2023-04-09T14:08:06.600Z,73.80
2023-04-09T14:09:39.501Z,74.00
2023-04-09T14:11:15.178Z,74.20
2023-04-09T14:12:48.147Z,74.60
2023-04-09T14:14:21.254Z,74.70
2023-04-09T14:15:55.737Z,74.90
2023-04-09T14:17:29.435Z,75.60
2023-04-09T14:19:02.398Z,75.90
2023-04-09T14:20:36.257Z,75.90
2023-04-09T14:22:10.279Z,76.00
2023-04-09T14:23:43.257Z,75.90
2023-04-09T14:25:16.318Z,76.20
2023-04-09T14:26:49.325Z,76.40
2023-04-09T14:28:22.294Z,76.30
2023-04-09T14:29:55.245Z,76.80
2023-04-09T14:31:29.605Z,77.00
2023-04-09T14:33:02.920Z,76.20
2023-04-09T14:34:35.707Z,76.30
2023-04-09T14:36:09.136Z,76.60
2023-04-09T14:37:42.132Z,76.40
2023-04-09T14:39:15.644Z,76.20
2023-04-09T14:40:48.643Z,75.40
2023-04-09T14:42:22.247Z,74.50
2023-04-09T14:43:55.228Z,74.70
2023-04-09T14:45:30.395Z,74.60
2023-04-09T14:47:04.974Z,74.40
2023-04-09T14:48:38.031Z,74.10
2023-04-09T14:50:12.829Z,74.40
2023-04-09T14:51:45.818Z,74.30
2023-04-09T14:53:18.916Z,74.20
2023-04-09T14:54:51.774Z,74.50
2023-04-09T14:56:25.127Z,73.90
2023-04-09T14:57:57.871Z,73.70
2023-04-09T14:59:30.814Z,72.80
2023-04-09T15:01:04.234Z,72.10
2023-04-09T15:02:39.596Z,72.20
2023-04-09T15:04:12.757Z,72.00
2023-04-09T15:05:46.121Z,71.60
2023-04-09T15:07:18.906Z,71.50
2023-04-09T15:08:52.127Z,71.40
2023-04-09T15:10:25.263Z,70.80
2023-04-09T15:11:58.222Z,70.90
2023-04-09T15:13:31.284Z,70.60
2023-04-09T15:15:07.246Z,69.80
2023-04-09T15:16:40.334Z,69.90
2023-04-09T15:18:14.641Z,70.20
2023-04-09T15:19:47.930Z,70.80
2023-04-09T15:21:20.698Z,70.90
2023-04-09T15:22:53.691Z,72.00
2023-04-09T15:24:26.688Z,71.50
2023-04-09T15:25:59.739Z,72.00
2023-04-09T15:27:32.724Z,72.50
2023-04-09T15:29:08.460Z,72.70
2023-04-09T15:30:41.864Z,73.20
2023-04-09T15:32:14.835Z,74.10
2023-04-09T15:33:50.404Z,73.90
2023-04-09T15:35:26.568Z,74.10
2023-04-09T15:36:59.580Z,74.60
2023-04-09T15:38:32.474Z,74.40
2023-04-09T15:40:05.836Z,74.40
2023-04-09T15:41:39.053Z,74.30
2023-04-09T15:43:12.004Z,74.30
2023-04-09T15:44:44.895Z,74.80
2023-04-09T15:46:18.307Z,74.70
2023-04-09T15:47:51.390Z,74.20
2023-04-09T15:49:25.728Z,74.50
2023-04-09T15:50:58.673Z,74.50
2023-04-09T15:52:31.586Z,74.80
2023-04-09T15:54:04.651Z,74.50
2023-04-09T15:55:37.612Z,74.70
2023-04-09T15:57:10.488Z,74.60
2023-04-09T15:58:43.629Z,73.70
2023-04-09T16:00:16.781Z,73.50
2023-04-09T16:01:49.865Z,73.40
2023-04-09T16:03:22.864Z,73.50
2023-04-09T16:04:57.133Z,73.70
2023-04-09T16:06:30.114Z,73.90
2023-04-09T16:08:03.549Z,74.00
2023-04-09T16:09:36.476Z,73.90
2023-04-09T16:11:09.550Z,73.40
2023-04-09T16:12:42.415Z,73.30
2023-04-09T16:14:15.567Z,72.90
2023-04-09T16:15:49.352Z,73.00
2023-04-09T16:17:22.371Z,72.40
2023-04-09T16:18:55.405Z,72.40
2023-04-09T16:20:29.796Z,72.80
2023-04-09T16:22:02.707Z,72.80
2023-04-09T16:23:35.648Z,72.80
2023-04-09T16:25:09.333Z,72.70
2023-04-09T16:26:43.158Z,73.20
2023-04-09T16:28:16.518Z,74.60
2023-04-09T16:29:49.440Z,75.90
2023-04-09T16:31:22.374Z,76.40
2023-04-09T16:32:55.396Z,77.00
2023-04-09T16:34:28.453Z,77.60
2023-04-09T16:36:02.936Z,78.00
2023-04-09T16:37:36.286Z,78.20
2023-04-09T16:39:09.061Z,78.50
2023-04-09T16:40:42.006Z,78.70
2023-04-09T16:42:14.884Z,78.80
2023-04-09T16:43:50.158Z,79.30
2023-04-09T16:45:23.567Z,79.60
2023-04-09T16:46:56.860Z,79.70
2023-04-09T16:48:29.627Z,80.10
2023-04-09T16:50:02.945Z,80.10
2023-04-09T16:51:37.985Z,80.00
2023-04-09T16:53:11.101Z,79.90
2023-04-09T16:54:44.097Z,79.90
2023-04-09T16:56:17.002Z,79.70
2023-04-09T16:57:49.904Z,79.80
2023-04-09T16:59:22.828Z,79.90
2023-04-09T17:00:56.336Z,79.70
2023-04-09T17:02:29.331Z,79.70
2023-04-09T17:04:03.112Z,79.80
2023-04-09T17:05:36.168Z,80.00
2023-04-09T17:07:10.599Z,80.30
2023-04-09T17:08:43.470Z,80.70
2023-04-09T17:10:16.331Z,80.70
2023-04-09T17:11:49.317Z,80.80
2023-04-09T17:13:22.283Z,81.10
2023-04-09T17:14:55.697Z,81.20
2023-04-09T17:16:28.805Z,81.30
2023-04-09T17:18:02.287Z,81.60
2023-04-09T17:19:35.299Z,82.00
2023-04-09T17:21:08.267Z,82.20
2023-04-09T17:22:42.592Z,82.50
2023-04-09T17:24:15.579Z,82.90
2023-04-09T17:25:48.616Z,83.20
2023-04-09T17:27:21.735Z,83.40
2023-04-09T17:28:54.851Z,84.00
2023-04-09T17:30:27.774Z,84.40
2023-04-09T17:32:00.984Z,84.50
2023-04-09T17:33:33.866Z,84.80
2023-04-09T17:35:07.546Z,85.00
2023-04-09T17:36:41.364Z,85.20
2023-04-09T17:38:21.003Z,85.50
2023-04-09T17:39:53.886Z,85.60
2023-04-09T17:41:27.673Z,86.00
2023-04-09T17:43:01.027Z,86.10
2023-04-09T17:44:35.445Z,86.60
2023-04-09T17:46:08.779Z,87.10
2023-04-09T17:47:41.974Z,87.60
2023-04-09T17:49:14.937Z,87.80
2023-04-09T17:50:48.314Z,88.50
2023-04-09T17:52:21.209Z,89.00
2023-04-09T17:53:56.062Z,89.40
2023-04-09T17:55:29.014Z,89.90
2023-04-09T17:57:04.041Z,90.20
2023-04-09T17:58:36.892Z,90.50
2023-04-09T18:00:11.095Z,90.70
2023-04-09T18:01:44.163Z,90.80
2023-04-09T18:03:17.934Z,90.90
2023-04-09T18:04:51.399Z,91.20
2023-04-09T18:06:24.321Z,91.40
2023-04-09T18:07:59.563Z,91.60
2023-04-09T18:09:34.410Z,91.80
2023-04-09T18:11:12.292Z,92.00
2023-04-09T18:12:46.365Z,92.20
2023-04-09T18:14:19.203Z,92.50
2023-04-09T18:15:52.167Z,92.60
2023-04-09T18:17:26.273Z,92.70
2023-04-09T18:18:59.618Z,92.90
2023-04-09T18:20:32.637Z,93.10
2023-04-09T18:22:05.508Z,93.20
2023-04-09T18:23:40.081Z,93.40
2023-04-09T18:25:14.594Z,93.30
2023-04-09T18:26:47.495Z,93.30
2023-04-09T18:28:20.602Z,93.50
2023-04-09T18:29:53.528Z,93.70
2023-04-09T18:31:27.242Z,93.80
2023-04-09T18:33:00.509Z,93.90
2023-04-09T18:34:33.467Z,94.00
2023-04-09T18:36:06.853Z,94.10
2023-04-09T18:37:39.562Z,94.20
2023-04-09T18:39:12.434Z,94.30
2023-04-09T18:40:46.716Z,94.30
2023-04-09T18:42:19.610Z,94.50
2023-04-09T18:43:52.719Z,94.60
2023-04-09T18:45:25.962Z,94.70
2023-04-09T18:46:59.683Z,94.70
2023-04-09T18:48:32.893Z,94.80
2023-04-09T18:50:06.550Z,94.90
2023-04-09T18:51:39.516Z,95.00
2023-04-09T18:53:14.581Z,95.00
2023-04-09T18:54:48.257Z,95.20
2023-04-09T18:56:22.866Z,95.20
2023-04-09T18:57:55.743Z,95.30
2023-04-09T18:59:28.825Z,95.40
2023-04-09T19:01:01.880Z,95.40
2023-04-09T19:02:34.946Z,95.60
2023-04-09T19:04:08.041Z,95.60
2023-04-09T19:05:41.025Z,95.80
2023-04-09T19:07:14.107Z,95.80
2023-04-09T19:08:47.626Z,95.80
2023-04-09T19:10:20.858Z,96.00
2023-04-09T19:11:55.162Z,96.10
2023-04-09T19:13:28.043Z,96.20
2023-04-09T19:15:02.205Z,96.20
2023-04-09T19:16:35.457Z,96.20
2023-04-09T19:18:08.503Z,96.30
2023-04-09T19:19:41.686Z,96.40
2023-04-09T19:21:15.018Z,96.60
2023-04-09T19:22:48.215Z,96.70
2023-04-09T19:24:21.319Z,96.90
2023-04-09T19:25:55.289Z,97.10
2023-04-09T19:27:29.803Z,97.30
2023-04-09T19:29:03.630Z,97.40
2023-04-09T19:30:36.579Z,97.50
2023-04-09T19:32:12.704Z,97.50
2023-04-09T19:33:45.688Z,97.60
2023-04-09T19:35:18.712Z,97.80
2023-04-09T19:36:51.638Z,97.90
2023-04-09T19:38:24.671Z,98.10
2023-04-09T19:40:01.138Z,98.40
2023-04-09T19:41:34.228Z,98.50
2023-04-09T19:43:08.524Z,98.40
2023-04-09T19:44:41.486Z,98.50
2023-04-09T19:46:14.439Z,98.60
2023-04-09T19:47:47.421Z,98.60
2023-04-09T19:49:20.427Z,98.70
2023-04-09T19:50:53.447Z,98.80
2023-04-09T19:52:26.987Z,98.70
2023-04-09T19:53:59.882Z,98.90
2023-04-09T19:55:32.842Z,99.00
2023-04-09T19:57:05.735Z,99.10
2023-04-09T19:58:40.136Z,99.10
2023-04-09T20:00:14.461Z,99.30
2023-04-09T20:01:48.509Z,99.40
2023-04-09T20:03:21.546Z,99.50
2023-04-09T20:04:54.571Z,99.60
2023-04-09T20:06:28.882Z,99.70
2023-04-09T20:08:01.846Z,99.80
2023-04-09T20:09:41.208Z,99.90
2023-04-09T20:11:17.657Z,99.90
2023-04-09T20:12:51.218Z,99.90